• Join FlightAware (Why Join?)
  • Login
  • US Flag 
01:34PM EDT


 

Airport Tracker/Info


-or-


 

Live Flight TrackerFlight Track Log ✈ FDX1482 ✈ 08-May-2013 ✈ KMEM - KBWI

Flight Track Log - Related Links

Times and Time Zones

All times are in EDT time to prevent confusion due to time zone crossing. See the FDX1482 flight status page for this flight to view local times or setup timezone preferences in your user account.

Time Position Orientation Groundspeed Altitude Reporting Facility
EDT Latitude Longitude Course Direction KTS MPH feet Rate Location/Type
04:24AM 35.0333 -89.9667 180° South 155 178 1,000  Level KMEM
04:25AM 35.0000 -89.9667 180° South 173 199 2,400 2,700 Climbing KMEM
04:26AM 34.9333 -89.9167 148° Southeast 293 337 6,000 3,120 Climbing KMEM
04:28AM 34.9683 -89.7514 75° East 348 400 11,400 3,420 Climbing Memphis Center
04:29AM 35.0197 -89.6344 62° Northeast 359 413 15,400 3,600 Climbing Memphis Center
04:30AM 35.0753 -89.5122 61° Northeast 396 456 18,600 2,880 Climbing Memphis Center
04:31AM 35.1267 -89.3975 61° Northeast 411 473 21,200 2,520 Climbing Memphis Center
04:32AM 35.1861 -89.2594 62° Northeast 430 495 23,700 2,640 Climbing Memphis Center
04:33AM 35.2472 -89.1214 62° Northeast 446 513 26,500 2,760 Climbing Memphis Center
04:34AM 35.3000 -88.9781 66° East 452 520 29,300 2,760 Climbing Memphis Center
04:35AM 35.3525 -88.8397 65° Northeast 451 519 32,100 2,220 Climbing Memphis Center
04:36AM 35.4050 -88.6961 66° East 451 519 33,800 1,440 Climbing Memphis Center
04:37AM 35.4572 -88.5575 65° Northeast 446 513 35,000 60 Climbing Memphis Center
04:43AM 35.7680 -87.7150 65° Northeast 35,000  Level FlightAware
04:43AM 35.8030 -87.6180 66° East 35,000  Level FlightAware
04:44AM 35.8380 -87.5220 66° East 35,000  Level FlightAware
04:45AM 35.8760 -87.4170 66° East 35,000  Level FlightAware
04:45AM 35.9100 -87.3230 66° East 35,000  Level FlightAware
04:46AM 35.9490 -87.2130 66° East 35,000  Level FlightAware
04:47AM 35.9850 -87.1150 66° East 35,000  Level FlightAware
04:47AM 36.0190 -87.0190 66° East 35,000  Level FlightAware
04:48AM 36.0345 -86.9746 67° East 456 525 35,000  Level FlightAware ADS-B
04:48AM 36.0607 -86.9008 66° East 468 539 35,000  Level FlightAware ADS-B
04:49AM 36.0873 -86.8258 66° East 461 531 35,000  Level FlightAware ADS-B
04:49AM 36.1139 -86.7501 66° East 468 539 35,000  Level FlightAware ADS-B
04:50AM 36.1400 -86.6758 66° East 462 532 35,000  Level FlightAware ADS-B
04:50AM 36.1677 -86.5927 68° East 466 536 35,000  Level FlightAware ADS-B
04:51AM 36.1914 -86.5178 69° East 461 531 35,000  Level FlightAware ADS-B
04:52AM 36.2290 -86.4010 68° East 35,000  Level FlightAware
04:52AM 36.2358 -86.3790 69° East 456 525 35,000  Level FlightAware ADS-B
04:52AM 36.2624 -86.2971 68° East 466 536 35,000  Level FlightAware ADS-B
04:53AM 36.2863 -86.2224 68° East 469 540 35,000  Level FlightAware ADS-B
04:53AM 36.3096 -86.1493 68° East 461 531 35,000  Level FlightAware ADS-B
04:54AM 36.3335 -86.0746 68° East 466 536 35,000  Level FlightAware ADS-B
04:54AM 36.3603 -85.9905 68° East 461 531 35,000  Level FlightAware ADS-B
04:55AM 36.4040 -85.8520 69° East 35,000  Level FlightAware
04:56AM 36.4094 -85.8355 68° East 453 521 35,000  Level FlightAware ADS-B
04:56AM 36.4325 -85.7624 69° East 457 526 35,000  Level FlightAware ADS-B
04:57AM 36.4566 -85.6865 68° East 452 520 35,000  Level FlightAware ADS-B
04:57AM 36.4799 -85.6124 69° East 472 543 35,000  Level FlightAware ADS-B
04:58AM 36.5026 -85.5394 69° East 452 520 35,000  Level FlightAware ADS-B
04:58AM 36.5258 -85.4652 69° East 452 520 35,000  Level FlightAware ADS-B
04:59AM 36.5490 -85.3911 69° East 468 539 35,000  Level FlightAware ADS-B
04:59AM 36.5730 -85.3138 69° East 448 516 35,000  Level FlightAware ADS-B
05:00AM 36.5984 -85.2337 68° East 445 512 35,000  Level FlightAware ADS-B
05:00AM 36.6221 -85.1590 68° East 456 525 35,000  Level FlightAware ADS-B
05:01AM 36.6469 -85.0800 69° East 449 517 35,000  Level FlightAware ADS-B
05:01AM 36.6707 -85.0048 68° East 453 521 35,000  Level FlightAware ADS-B
05:02AM 36.7010 -84.9082 69° East 451 519 35,000  Level FlightAware ADS-B
05:02AM 36.7271 -84.8246 69° East 452 520 35,000  Level FlightAware ADS-B
05:03AM 36.7546 -84.7360 69° East 457 526 35,000  Level FlightAware ADS-B
05:04AM 36.7786 -84.6589 69° East 442 509 35,000  Level FlightAware ADS-B
05:04AM 36.8027 -84.5813 69° East 442 509 35,000  Level FlightAware ADS-B
05:05AM 36.8258 -84.5065 69° East 463 533 35,000  Level FlightAware ADS-B
05:05AM 36.8480 -84.4339 69° East 449 517 35,000  Level FlightAware ADS-B
05:06AM 36.8708 -84.3601 69° East 461 531 35,000  Level FlightAware ADS-B
05:06AM 36.8930 -84.2875 69° East 443 510 35,000  Level FlightAware ADS-B
05:07AM 36.9151 -84.2150 69° East 441 507 35,000  Level FlightAware ADS-B
05:07AM 36.9391 -84.1366 69° East 448 516 35,000  Level FlightAware ADS-B
05:08AM 36.9625 -84.0595 69° East 456 525 35,000  Level FlightAware ADS-B
05:09AM 37.0154 -83.8856 69° East 445 512 35,000  Level FlightAware ADS-B
05:09AM 37.0378 -83.8111 69° East 444 511 35,000  Level FlightAware ADS-B
05:10AM 37.0603 -83.7368 69° East 444 511 35,000  Level FlightAware ADS-B
05:10AM 37.0824 -83.6623 70° East 441 507 35,000  Level FlightAware ADS-B
05:11AM 37.1101 -83.5701 69° East 453 521 35,000  Level FlightAware ADS-B
05:12AM 37.1518 -83.4296 70° East 449 517 35,000  Level FlightAware ADS-B
05:13AM 37.1750 -83.3517 69° East 448 516 35,000  Level FlightAware ADS-B
05:14AM 37.2287 -83.1698 70° East 450 518 35,000  Level FlightAware ADS-B
05:14AM 37.2514 -83.0925 70° East 451 519 35,000  Level FlightAware ADS-B
05:15AM 37.2837 -82.9821 70° East 452 520 35,000  Level FlightAware ADS-B
05:16AM 37.3408 -82.7858 70° East 35,000  Level FlightAware ADS-B
05:17AM 37.3678 -82.6924 70° East 452 520 35,000  Level FlightAware ADS-B
05:18AM 37.4253 -82.4934 70° East 35,000  Level FlightAware ADS-B
05:19AM 37.4474 -82.4160 70° East 459 528 35,000  Level FlightAware ADS-B
05:19AM 37.4691 -82.3398 70° East 456 525 35,000  Level FlightAware ADS-B
05:20AM 37.4905 -82.2647 70° East 455 524 35,000  Level FlightAware ADS-B
05:20AM 37.5126 -82.1870 70° East 462 532 35,000  Level FlightAware ADS-B
05:21AM 37.5346 -82.1091 70° East 477 549 35,000  Level FlightAware ADS-B
05:21AM 37.5559 -82.0336 70° East 454 522 35,000  Level FlightAware ADS-B
05:22AM 37.5777 -81.9568 70° East 461 531 35,000  Level FlightAware ADS-B
05:22AM 37.5994 -81.8797 70° East 461 531 35,000  Level FlightAware ADS-B
05:23AM 37.6213 -81.8011 71° East 465 535 35,000  Level FlightAware ADS-B
05:23AM 37.6424 -81.7252 71° East 442 509 35,000  Level FlightAware ADS-B
05:24AM 37.6642 -81.6469 71° East 466 536 35,000  Level FlightAware ADS-B
05:25AM 37.6860 -81.5687 71° East 447 514 35,000  Level FlightAware ADS-B
05:25AM 37.7073 -81.4916 71° East 463 533 35,000  Level FlightAware ADS-B
05:26AM 37.7286 -81.4144 71° East 472 543 35,000  Level FlightAware ADS-B
05:26AM 37.7552 -81.3182 71° East 449 517 35,000  Level FlightAware ADS-B
05:27AM 37.7765 -81.2410 71° East 462 532 35,000  Level FlightAware ADS-B
05:27AM 37.7988 -81.1598 71° East 461 531 35,000  Level FlightAware ADS-B
05:28AM 37.8240 -81.0650 71° East 35,000  Level FlightAware
05:29AM 37.8520 -80.9630 71° East 35,000  Level FlightAware
05:29AM 37.8840 -80.8450 71° East 35,000  Level FlightAware
05:30AM 37.9110 -80.7430 71° East 35,000  Level FlightAware
05:31AM 37.9480 -80.6050 71° East 35,000  Level FlightAware
05:32AM 37.9750 -80.5040 71° East 35,000  Level FlightAware
05:32AM 37.9917 -80.4428 71° East 453 521 35,000  Level Washington Center
05:33AM 38.0336 -80.2847 71° East 453 521 35,000 -900 Level Washington Center
05:39AM 38.2660 -79.3870 71° East 35,000 -960 Level FlightAware
05:39AM 38.2930 -79.2800 72° East 35,000 -1,140 Level FlightAware
05:40AM 38.3260 -79.1480 72° East 35,000 -1,140 Level FlightAware
05:42AM 38.4030 -78.8400 72° East 35,000 -1,200 Level FlightAware
05:43AM 38.4290 -78.7370 72° East 35,000 -1,260 Level FlightAware
05:44AM 38.4590 -78.6150 73° East 34,700 -1,260 Descending FlightAware
05:44AM 38.4840 -78.5110 73° East 32,800 -1,320 Descending FlightAware
05:45AM 38.5130 -78.3960 72° East 30,500 -1,260 Descending FlightAware
05:46AM 38.5370 -78.2980 73° East 28,200 -1,200 Descending FlightAware
05:46AM 38.5620 -78.1920 73° East 25,800 -1,140 Descending FlightAware
05:47AM 38.5870 -78.0910 72° East 23,800 -1,080 Descending FlightAware
05:48AM 38.6140 -77.9770 73° East 21,400 -1,020 Descending FlightAware
05:49AM 38.6390 -77.8680 74° East 19,100 -960 Descending FlightAware
05:49AM 38.6460 -77.7740 85° East 18,400 -840 Descending FlightAware
05:50AM 38.6520 -77.6760 85° East 17,800 -840 Descending FlightAware
05:51AM 38.6580 -77.5720 86° East 17,100 -840 Descending FlightAware
05:51AM 38.6640 -77.4760 85° East 16,600 -840 Descending FlightAware
05:52AM 38.6710 -77.3690 85° East 16,000 -840 Descending FlightAware
05:53AM 38.6760 -77.2740 86° East 15,300 -840 Descending FlightAware
05:53AM 38.6810 -77.1780 86° East 13,900 -840 Descending FlightAware
05:54AM 38.6870 -77.0830 85° East 12,700 -780 Descending FlightAware
05:55AM 38.6910 -77.0090 86° East 11,800 -780 Descending FlightAware
05:56AM 38.6950 -76.9280 86° East 10,900 -720 Descending FlightAware
05:56AM 38.6980 -76.8690 86° East 10,300 -720 Descending FlightAware
05:57AM 38.7010 -76.8240 85° East 9,800 -660 Descending FlightAware
05:57AM 38.7040 -76.7680 86° East 9,200 -660 Descending FlightAware
05:58AM 38.7180 -76.7160 71° East 8,600 -660 Descending FlightAware
05:58AM 38.7330 -76.6810 61° Northeast 8,100 -600 Descending FlightAware
05:59AM 38.7550 -76.6300 61° Northeast 7,400 -600 Descending FlightAware
05:59AM 38.7670 -76.6030 60° Northeast 7,000 -540 Descending FlightAware
05:59AM 38.7800 -76.5730 61° Northeast 6,600 -540 Descending FlightAware
06:00AM 38.8000 -76.5370 55° Northeast 6,000 -540 Descending FlightAware
06:00AM 38.8140 -76.5290 24° Northeast 6,000 -480 Level FlightAware
06:00AM 38.8510 -76.5360 352° North 6,000 -480 Level FlightAware
06:01AM 38.8890 -76.5530 341° North 6,000 -540 Level FlightAware
06:01AM 38.9250 -76.5710 339° North 5,900 -540 Descending FlightAware
06:02AM 38.9530 -76.5840 340° North 5,300 -540 Descending FlightAware
06:02AM 38.9730 -76.6000 328° Northwest 4,800 -540 Descending FlightAware
06:02AM 38.9840 -76.6210 304° West 4,500 -480 Descending FlightAware
06:03AM 39.0000 -76.6560 300° West 4,100 -420 Descending FlightAware
06:03AM 39.0140 -76.6880 299° West 4,000 -420 Descending FlightAware
06:04AM 39.0230 -76.7080 300° West 4,000 -420 Level FlightAware
06:04AM 39.0390 -76.7450 299° West 4,000 -420 Level FlightAware
06:04AM 39.0520 -76.7740 300° West 3,800 -480 Descending FlightAware
06:05AM 39.0630 -76.8000 299° West 3,400 -480 Descending FlightAware
06:05AM 39.0810 -76.8490 295° West 3,000 -420 Descending FlightAware
06:06AM 39.0880 -76.8760 288° West 3,000 -360 Level FlightAware
06:06AM 39.0930 -76.8910 293° West 2,700 -420 Descending FlightAware
06:06AM 39.1070 -76.9080 317° Northwest 2,300 -360 Descending FlightAware
06:07AM 39.1390 -76.9180 346° North 2,000 -300 Descending FlightAware
06:07AM 39.1650 -76.9170 North 2,000 -180 Level FlightAware
06:08AM 39.1750 -76.9000 53° Northeast 2,000 -240 Level FlightAware
06:08AM 39.1850 -76.8740 64° Northeast 2,000 -300 Level FlightAware
06:09AM 39.1830 -76.8540 97° East 2,000 -360 Level FlightAware
06:09AM 39.1810 -76.8220 95° East 2,000 -480 Level FlightAware
06:10AM 39.1833 -76.7833 95° East 137 158 1,500 -720 Descending Potomac TRACON
06:11AM 39.1833 -76.7333 90° East 125 144 900 -600 Descending Potomac TRACON